createdAt,value
2018-09-25T00:00:07.454Z,102776.77
2018-09-25T00:01:17.464Z,102779.24
2018-09-25T00:02:26.355Z,102777.04
2018-09-25T00:03:35.171Z,102777.58
2018-09-25T00:04:43.782Z,102784.45
2018-09-25T00:05:52.360Z,102772.09
2018-09-25T00:07:01.202Z,102773.47
2018-09-25T00:08:09.918Z,102775.66
2018-09-25T00:09:18.699Z,102780.33
2018-09-25T00:10:27.568Z,102776.76
2018-09-25T00:11:36.175Z,102771.81
2018-09-25T00:12:44.699Z,102774.84
2018-09-25T00:13:53.520Z,102777.02
2018-09-25T00:15:02.400Z,102784.17
2018-09-25T00:16:11.243Z,102781.42
2018-09-25T00:17:19.968Z,102785.27
2018-09-25T00:18:28.739Z,102790.21
2018-09-25T00:19:37.400Z,102791.30
2018-09-25T00:20:46.173Z,102789.38
2018-09-25T00:21:54.947Z,102792.13
2018-09-25T00:23:03.579Z,102790.76
2018-09-25T00:24:12.211Z,102790.48
2018-09-25T00:25:20.900Z,102792.13
2018-09-25T00:26:29.630Z,102792.67
2018-09-25T00:27:38.440Z,102787.73
2018-09-25T00:28:47.135Z,102787.42
2018-09-25T00:29:55.778Z,102787.42
2018-09-25T00:31:04.540Z,102794.59
2018-09-25T00:32:13.480Z,102798.41
2018-09-25T00:33:21.976Z,102795.11
2018-09-25T00:34:30.856Z,102794.83
2018-09-25T00:35:39.643Z,102796.75
2018-09-25T00:36:48.344Z,102795.38
2018-09-25T00:37:57.066Z,102790.43
2018-09-25T00:39:05.625Z,102792.08
2018-09-25T00:40:14.370Z,102795.38
2018-09-25T00:41:23.188Z,102791.80
2018-09-25T00:42:31.727Z,102801.13
2018-09-25T00:43:40.398Z,102794.27
2018-09-25T00:44:49.037Z,102797.56
2018-09-25T00:45:57.809Z,102796.19
2018-09-25T00:47:06.628Z,102805.25
2018-09-25T00:48:15.294Z,102804.42
2018-09-25T00:49:24.049Z,102800.30
2018-09-25T00:50:32.500Z,102797.28
2018-09-25T00:51:41.285Z,102798.94
2018-09-25T00:52:50.009Z,102791.78
2018-09-25T00:53:58.810Z,102793.16
2018-09-25T00:55:07.600Z,102793.70
2018-09-25T00:56:16.442Z,102794.80
2018-09-25T00:57:25.101Z,102795.63
2018-09-25T00:58:33.939Z,102804.14
2018-09-25T00:59:42.706Z,102798.09
2018-09-25T01:00:51.288Z,102795.63
2018-09-25T01:02:00.075Z,102800.83
2018-09-25T01:03:08.758Z,102796.72
2018-09-25T01:04:17.521Z,102801.38
2018-09-25T01:05:26.265Z,102798.09
2018-09-25T01:06:34.950Z,102803.30
2018-09-25T01:07:43.755Z,102804.67
2018-09-25T01:08:52.550Z,102797.52
2018-09-25T01:10:01.326Z,102801.92
2018-09-25T01:11:10.134Z,102804.67
2018-09-25T01:12:18.900Z,102806.59
2018-09-25T01:13:27.521Z,102803.02
2018-09-25T01:14:36.324Z,102799.44
2018-09-25T01:15:45.105Z,102796.15
2018-09-25T01:16:54.050Z,102799.44
2018-09-25T01:18:02.843Z,102795.87
2018-09-25T01:19:11.658Z,102800.53
2018-09-25T01:20:20.377Z,102797.24
2018-09-25T01:21:29.136Z,102803.56
2018-09-25T01:22:37.908Z,102806.31
2018-09-25T01:23:46.328Z,102799.70
2018-09-25T01:24:55.039Z,102803.83
2018-09-25T01:26:03.751Z,102809.05
2018-09-25T01:27:12.410Z,102801.91
2018-09-25T01:28:21.025Z,102802.45
2018-09-25T01:29:29.826Z,102804.38
2018-09-25T01:30:38.599Z,102802.17
2018-09-25T01:31:47.247Z,102805.20
2018-09-25T01:32:55.964Z,102817.28
2018-09-25T01:34:04.666Z,102809.86
2018-09-25T01:35:13.268Z,102817.28
2018-09-25T01:36:21.979Z,102818.65
2018-09-25T01:37:30.777Z,102824.14
2018-09-25T01:38:39.608Z,102822.48
2018-09-25T01:39:48.586Z,102824.14
2018-09-25T01:40:57.306Z,102830.18
2018-09-25T01:42:06.069Z,102826.33
2018-09-25T01:43:14.889Z,102827.70
2018-09-25T01:44:23.420Z,102829.89
2018-09-25T01:45:32.221Z,102833.19
2018-09-25T01:46:41.049Z,102827.38
2018-09-25T01:47:49.902Z,102830.13
2018-09-25T01:48:58.694Z,102834.25
2018-09-25T01:50:07.622Z,102829.30
2018-09-25T01:51:16.347Z,102834.52
2018-09-25T01:52:24.918Z,102832.05
2018-09-25T01:53:33.716Z,102826.27
2018-09-25T01:54:42.212Z,102824.07
2018-09-25T01:55:50.866Z,102826.27
2018-09-25T01:56:59.660Z,102830.94
2018-09-25T01:58:08.468Z,102828.73
2018-09-25T01:59:17.265Z,102829.28
2018-09-25T02:00:26.065Z,102829.28
2018-09-25T02:01:34.782Z,102827.08
2018-09-25T02:02:43.651Z,102824.88
2018-09-25T02:03:52.410Z,102829.00
2018-09-25T02:05:01.189Z,102824.88
2018-09-25T02:06:09.744Z,102827.63
2018-09-25T02:07:18.281Z,102828.45
2018-09-25T02:08:27.061Z,102830.37
2018-09-25T02:09:35.881Z,102825.42
2018-09-25T02:10:44.628Z,102827.34
2018-09-25T02:11:53.152Z,102826.80
2018-09-25T02:13:01.940Z,102826.80
2018-09-25T02:14:10.697Z,102827.06
2018-09-25T02:15:19.520Z,102830.63
2018-09-25T02:16:28.341Z,102824.86
2018-09-25T02:17:37.055Z,102822.66
2018-09-25T02:18:45.696Z,102830.34
2018-09-25T02:19:54.746Z,102821.00
2018-09-25T02:21:03.552Z,102825.41
2018-09-25T02:22:12.300Z,102826.78
2018-09-25T02:23:20.971Z,102825.66
2018-09-25T02:24:29.672Z,102823.75
2018-09-25T02:25:38.464Z,102829.78
2018-09-25T02:26:47.279Z,102830.33
2018-09-25T02:27:55.992Z,102831.98
2018-09-25T02:29:04.561Z,102830.33
2018-09-25T02:30:13.181Z,102830.33
2018-09-25T02:31:22.001Z,102828.12
2018-09-25T02:32:30.819Z,102832.53
2018-09-25T02:33:39.631Z,102823.46
2018-09-25T02:34:48.313Z,102822.09
2018-09-25T02:35:57.094Z,102819.06
2018-09-25T02:37:05.809Z,102827.84
2018-09-25T02:38:14.617Z,102828.67
2018-09-25T02:39:23.401Z,102828.67
2018-09-25T02:40:32.185Z,102825.09
2018-09-25T02:41:40.948Z,102824.27
2018-09-25T02:42:49.750Z,102825.09
2018-09-25T02:43:58.269Z,102824.81
2018-09-25T02:45:07.057Z,102825.36
2018-09-25T02:46:15.812Z,102827.56
2018-09-25T02:47:24.567Z,102827.56
2018-09-25T02:48:33.237Z,102831.68
2018-09-25T02:49:42.034Z,102833.59
2018-09-25T02:50:50.653Z,102827.83
2018-09-25T02:51:59.468Z,102829.20
2018-09-25T02:53:08.207Z,102831.11
2018-09-25T02:54:16.936Z,102831.11
2018-09-25T02:55:25.636Z,102828.37
2018-09-25T02:56:34.118Z,102827.54
2018-09-25T02:57:42.957Z,102832.48
2018-09-25T02:58:51.534Z,102829.42
2018-09-25T03:00:00.344Z,102824.80
2018-09-25T03:01:09.030Z,102827.54
2018-09-25T03:02:17.747Z,102833.03
2018-09-25T03:03:26.484Z,102829.97
2018-09-25T03:04:35.445Z,102831.89
2018-09-25T03:05:44.136Z,102830.52
2018-09-25T03:06:52.625Z,102832.72
2018-09-25T03:08:01.187Z,102829.69
2018-09-25T03:09:11.662Z,102829.69
2018-09-25T03:10:20.476Z,102823.91
2018-09-25T03:11:29.169Z,102828.59
2018-09-25T03:12:37.975Z,102824.20
2018-09-25T03:13:46.750Z,102819.53
2018-09-25T03:14:55.363Z,102818.70
2018-09-25T03:16:04.202Z,102817.05
2018-09-25T03:17:13.004Z,102818.42
2018-09-25T03:18:21.769Z,102819.80
2018-09-25T03:19:30.479Z,102815.39
2018-09-25T03:20:39.336Z,102812.92
2018-09-25T03:21:48.132Z,102814.84
2018-09-25T03:22:56.789Z,102812.64
2018-09-25T03:24:05.654Z,102814.56
2018-09-25T03:25:14.330Z,102812.36
2018-09-25T03:26:22.870Z,102817.86
2018-09-25T03:27:32.424Z,102818.40
2018-09-25T03:28:41.275Z,102810.70
2018-09-25T03:29:50.072Z,102810.70
2018-09-25T03:30:58.831Z,102818.94
2018-09-25T03:32:07.615Z,102812.63
2018-09-25T03:33:16.174Z,102810.42
2018-09-25T03:34:24.923Z,102817.28
2018-09-25T03:35:33.542Z,102815.09
2018-09-25T03:36:42.300Z,102817.28
2018-09-25T03:37:50.872Z,102815.91
2018-09-25T03:38:59.836Z,102817.28
2018-09-25T03:40:08.535Z,102821.12
2018-09-25T03:41:17.343Z,102817.00
2018-09-25T03:42:26.166Z,102818.38
2018-09-25T03:43:34.928Z,102811.23
2018-09-25T03:44:43.646Z,102808.48
2018-09-25T03:45:52.459Z,102802.16
2018-09-25T03:47:01.006Z,102801.05
2018-09-25T03:48:09.659Z,102801.88
2018-09-25T03:49:18.465Z,102803.80
2018-09-25T03:50:27.143Z,102803.26
2018-09-25T03:51:36.042Z,102807.63
2018-09-25T03:52:44.548Z,102810.66
2018-09-25T03:53:53.208Z,102808.46
2018-09-25T03:55:01.977Z,102809.00
2018-09-25T03:56:10.795Z,102811.75
2018-09-25T03:57:19.333Z,102813.13
2018-09-25T03:58:27.818Z,102814.22
2018-09-25T03:59:36.717Z,102814.50
2018-09-25T04:00:45.346Z,102810.09
2018-09-25T04:01:54.103Z,102807.89
2018-09-25T04:03:02.780Z,102809.27
2018-09-25T04:04:11.637Z,102803.78
2018-09-25T04:05:20.252Z,102803.78
2018-09-25T04:06:29.105Z,102806.52
2018-09-25T04:07:37.596Z,102807.06
2018-09-25T04:08:46.285Z,102806.52
2018-09-25T04:09:55.003Z,102807.06
2018-09-25T04:11:03.704Z,102807.06
2018-09-25T04:12:12.517Z,102802.95
2018-09-25T04:13:21.191Z,102804.32
2018-09-25T04:14:29.881Z,102804.55
2018-09-25T04:15:38.696Z,102808.16
2018-09-25T04:16:47.403Z,102810.59
2018-09-25T04:17:56.469Z,102805.92
2018-09-25T04:19:05.128Z,102809.22
2018-09-25T04:20:13.950Z,102808.38
2018-09-25T04:21:22.632Z,102810.59
2018-09-25T04:22:31.475Z,102810.30
2018-09-25T04:23:40.094Z,102807.27
2018-09-25T04:24:48.989Z,102811.12
2018-09-25T04:25:57.524Z,102814.97
2018-09-25T04:27:06.378Z,102810.02
2018-09-25T04:28:15.212Z,102816.05
2018-09-25T04:29:23.809Z,102814.14
2018-09-25T04:30:32.564Z,102814.14
2018-09-25T04:31:41.365Z,102816.88
2018-09-25T04:32:50.070Z,102812.48
2018-09-25T04:33:58.915Z,102820.17
2018-09-25T04:35:07.725Z,102817.97
2018-09-25T04:36:16.550Z,102824.83
2018-09-25T04:37:25.187Z,102820.97
2018-09-25T04:38:34.036Z,102820.97
2018-09-25T04:39:42.660Z,102823.72
2018-09-25T04:40:51.452Z,102827.01
2018-09-25T04:42:00.640Z,102827.84
2018-09-25T04:43:09.688Z,102828.38
2018-09-25T04:44:18.340Z,102830.58
2018-09-25T04:45:27.064Z,102832.50
2018-09-25T04:46:35.813Z,102831.67
2018-09-25T04:47:44.895Z,102834.96
2018-09-25T04:48:53.555Z,102838.53
2018-09-25T04:50:02.336Z,102841.82
2018-09-25T04:51:11.128Z,102845.11
2018-09-25T04:52:19.924Z,102842.36
2018-09-25T04:53:28.420Z,102843.19
2018-09-25T04:54:37.219Z,102843.45
2018-09-25T04:55:45.923Z,102843.45
2018-09-25T04:56:54.716Z,102840.70
2018-09-25T04:58:03.431Z,102845.37
2018-09-25T04:59:12.099Z,102842.63
2018-09-25T05:00:20.618Z,102846.45
2018-09-25T05:01:29.294Z,102843.17
2018-09-25T05:02:38.091Z,102851.95
2018-09-25T05:03:46.771Z,102853.86
2018-09-25T05:04:55.392Z,102851.12
2018-09-25T05:06:04.098Z,102853.03
2018-09-25T05:07:12.869Z,102855.78
2018-09-25T05:08:21.490Z,102857.69
2018-09-25T05:09:30.252Z,102855.78
2018-09-25T05:10:39.053Z,102855.78
2018-09-25T05:11:47.805Z,102858.23
2018-09-25T05:12:56.330Z,102852.47
2018-09-25T05:14:05.275Z,102854.13
2018-09-25T05:15:14.117Z,102848.34
2018-09-25T05:16:22.784Z,102843.95
2018-09-25T05:17:31.488Z,102851.09
2018-09-25T05:18:40.367Z,102853.55
2018-09-25T05:19:48.991Z,102860.70
2018-09-25T05:20:57.739Z,102856.30
2018-09-25T05:22:06.497Z,102861.78
2018-09-25T05:23:15.141Z,102859.04
2018-09-25T05:24:23.784Z,102860.95
2018-09-25T05:25:32.346Z,102855.69
2018-09-25T05:26:41.151Z,102860.09
2018-09-25T05:27:49.756Z,102864.21
2018-09-25T05:28:58.623Z,102860.64
2018-09-25T05:30:07.354Z,102859.81
2018-09-25T05:31:16.003Z,102862.55
2018-09-25T05:32:24.797Z,102861.19
2018-09-25T05:33:33.381Z,102861.73
2018-09-25T05:34:42.063Z,102870.79
2018-09-25T05:35:50.889Z,102872.70
2018-09-25T05:36:59.647Z,102879.25
2018-09-25T05:38:08.546Z,102879.80
2018-09-25T05:39:17.259Z,102884.22
2018-09-25T05:40:25.878Z,102884.73
2018-09-25T05:41:34.700Z,102888.03
2018-09-25T05:42:43.328Z,102890.77
2018-09-25T05:43:52.118Z,102891.31
2018-09-25T05:45:00.879Z,102886.66
2018-09-25T05:46:09.583Z,102891.31
2018-09-25T05:47:18.313Z,102891.86
2018-09-25T05:48:27.164Z,102891.86
2018-09-25T05:49:35.894Z,102895.69
2018-09-25T05:50:44.895Z,102901.17
2018-09-25T05:51:53.592Z,102896.23
2018-09-25T05:53:02.272Z,102901.46
2018-09-25T05:54:11.037Z,102897.06
2018-09-25T05:55:19.533Z,102897.60
2018-09-25T05:56:28.309Z,102893.48
2018-09-25T05:57:43.549Z,102891.28
2018-09-25T05:58:53.220Z,102891.28
2018-09-25T06:00:01.849Z,102898.14
2018-09-25T06:01:10.549Z,102893.20
2018-09-25T06:02:19.245Z,102895.11
2018-09-25T06:03:28.179Z,102883.31
2018-09-25T06:04:36.766Z,102885.22
2018-09-25T06:05:45.558Z,102883.85
2018-09-25T06:06:54.316Z,102886.59
2018-09-25T06:08:03.215Z,102888.23
2018-09-25T06:09:13.711Z,102889.05
2018-09-25T06:10:22.534Z,102888.77
2018-09-25T06:11:31.072Z,102890.43
2018-09-25T06:12:39.692Z,102887.69
2018-09-25T06:13:48.488Z,102902.78
2018-09-25T06:14:57.334Z,102898.91
2018-09-25T06:16:06.241Z,102899.75
2018-09-25T06:17:14.983Z,102903.86
2018-09-25T06:18:23.640Z,102908.23
2018-09-25T06:19:32.295Z,102912.09
2018-09-25T06:20:40.917Z,102908.78
2018-09-25T06:21:49.606Z,102909.61
2018-09-25T06:22:58.348Z,102907.69
2018-09-25T06:24:07.189Z,102906.03
2018-09-25T06:25:15.716Z,102902.20
2018-09-25T06:26:24.315Z,102904.12
2018-09-25T06:27:33.034Z,102911.52
2018-09-25T06:28:41.895Z,102905.20
2018-09-25T06:29:50.769Z,102907.41
2018-09-25T06:30:59.469Z,102903.83
2018-09-25T06:32:08.244Z,102912.61
2018-09-25T06:33:17.056Z,102913.98
2018-09-25T06:34:25.756Z,102910.69
2018-09-25T06:35:34.533Z,102918.09
2018-09-25T06:36:43.335Z,102916.72
2018-09-25T06:37:52.081Z,102916.44
2018-09-25T06:39:01.005Z,102925.50
2018-09-25T06:40:09.619Z,102915.89
2018-09-25T06:41:18.491Z,102913.70
2018-09-25T06:42:27.058Z,102920.84
2018-09-25T06:43:35.657Z,102919.18
2018-09-25T06:44:44.393Z,102921.92
2018-09-25T06:45:53.201Z,102922.44
2018-09-25T06:47:02.001Z,102921.92
2018-09-25T06:48:10.698Z,102923.30
2018-09-25T06:49:19.352Z,102924.67
2018-09-25T06:50:28.169Z,102926.55
2018-09-25T06:51:36.932Z,102922.15
2018-09-25T06:52:45.516Z,102925.72
2018-09-25T06:53:54.184Z,102932.58
2018-09-25T06:55:02.716Z,102929.55
2018-09-25T06:56:11.416Z,102933.41
2018-09-25T06:57:19.906Z,102931.21
2018-09-25T06:58:28.646Z,102938.90
2018-09-25T06:59:37.417Z,102935.87
2018-09-25T07:00:46.097Z,102936.70
2018-09-25T07:01:54.721Z,102942.73
2018-09-25T07:03:03.528Z,102934.50
2018-09-25T07:04:12.172Z,102935.03
2018-09-25T07:05:20.880Z,102932.30
2018-09-25T07:06:29.534Z,102942.19
2018-09-25T07:07:38.315Z,102939.16
2018-09-25T07:08:47.122Z,102943.27
2018-09-25T07:09:55.852Z,102946.02
2018-09-25T07:11:04.302Z,102946.02
2018-09-25T07:12:13.000Z,102948.75
2018-09-25T07:13:21.638Z,102956.98
2018-09-25T07:14:30.413Z,102950.12
2018-09-25T07:15:39.193Z,102953.16
2018-09-25T07:16:47.932Z,102955.08
2018-09-25T07:17:56.695Z,102953.16
2018-09-25T07:19:05.409Z,102952.33
2018-09-25T07:20:14.199Z,102959.19
2018-09-25T07:21:22.966Z,102960.02
2018-09-25T07:22:31.849Z,102960.56
2018-09-25T07:23:40.526Z,102962.47
2018-09-25T07:24:49.360Z,102971.00
2018-09-25T07:25:57.925Z,102968.25
2018-09-25T07:27:06.740Z,102978.40
2018-09-25T07:28:15.246Z,102978.94
2018-09-25T07:29:24.180Z,102978.40
2018-09-25T07:30:32.705Z,102978.94
2018-09-25T07:31:41.551Z,102982.52
2018-09-25T07:32:50.341Z,102990.74
2018-09-25T07:33:59.215Z,102987.45
2018-09-25T07:35:08.179Z,102985.52
2018-09-25T07:36:17.057Z,102987.71
2018-09-25T07:37:25.717Z,102988.00
2018-09-25T07:38:34.446Z,102986.34
2018-09-25T07:39:43.172Z,102985.52
2018-09-25T07:40:51.892Z,102987.17
2018-09-25T07:42:00.647Z,102985.52
2018-09-25T07:43:09.439Z,102986.88
2018-09-25T07:44:18.120Z,102989.63
2018-09-25T07:45:26.937Z,102986.88
2018-09-25T07:46:35.487Z,102986.88
2018-09-25T07:47:44.227Z,102982.77
2018-09-25T07:48:53.027Z,102986.88
2018-09-25T07:50:01.790Z,102987.17
2018-09-25T07:51:10.669Z,102989.09
2018-09-25T07:52:19.461Z,102989.63
2018-09-25T07:53:28.463Z,102987.42
2018-09-25T07:54:37.369Z,102991.00
2018-09-25T07:55:46.179Z,102992.08
2018-09-25T07:56:54.750Z,102990.71
2018-09-25T07:58:03.533Z,102995.11
2018-09-25T07:59:12.820Z,102990.17
2018-09-25T08:00:21.622Z,103001.98
2018-09-25T08:01:30.517Z,102996.48
2018-09-25T08:02:39.277Z,102991.00
2018-09-25T08:03:48.070Z,102987.42
2018-09-25T08:04:56.794Z,102994.58
2018-09-25T08:06:05.671Z,102992.66
2018-09-25T08:07:14.245Z,102995.66
2018-09-25T08:08:23.032Z,102996.20
2018-09-25T08:09:31.800Z,102993.74
2018-09-25T08:10:40.580Z,102998.40
2018-09-25T08:11:49.805Z,102998.40
2018-09-25T08:12:58.645Z,103002.52
2018-09-25T08:14:07.397Z,103005.55
2018-09-25T08:15:16.310Z,102998.40
2018-09-25T08:16:25.037Z,103001.98
2018-09-25T08:17:33.900Z,103003.34
2018-09-25T08:18:42.645Z,103004.72
2018-09-25T08:19:51.498Z,102998.94
2018-09-25T08:21:00.200Z,103007.46
2018-09-25T08:22:09.569Z,103010.20
2018-09-25T08:23:18.844Z,103010.75
2018-09-25T08:24:27.632Z,103015.70
2018-09-25T08:25:36.197Z,103019.81
2018-09-25T08:26:44.850Z,103018.44
2018-09-25T08:27:53.681Z,103018.44
2018-09-25T08:29:02.376Z,103022.84
2018-09-25T08:30:11.472Z,103014.03
2018-09-25T08:31:20.282Z,103021.18
2018-09-25T08:32:29.069Z,103017.06
2018-09-25T08:33:37.875Z,103015.41
2018-09-25T08:34:46.657Z,103013.78
2018-09-25T08:35:55.200Z,103017.06
2018-09-25T08:37:03.908Z,103023.38
2018-09-25T08:38:12.828Z,103020.35
2018-09-25T08:39:21.655Z,103026.95
2018-09-25T08:40:30.464Z,103023.92
2018-09-25T08:41:39.120Z,103028.33
2018-09-25T08:42:47.941Z,103027.50
2018-09-25T08:43:56.757Z,103025.58
2018-09-25T08:45:05.361Z,103025.30
2018-09-25T08:46:14.176Z,103026.67
2018-09-25T08:47:22.858Z,103023.92
2018-09-25T08:48:31.637Z,103024.21
2018-09-25T08:49:40.484Z,103025.58
2018-09-25T08:50:49.159Z,103025.05
2018-09-25T08:51:57.983Z,103023.92
2018-09-25T08:53:06.766Z,103028.33
2018-09-25T08:54:15.562Z,103029.70
2018-09-25T08:55:24.218Z,103029.70
2018-09-25T08:56:32.854Z,103031.08
2018-09-25T08:57:41.461Z,103028.33
2018-09-25T08:58:50.313Z,103029.16
2018-09-25T08:59:59.180Z,103029.70
2018-09-25T09:01:07.936Z,103029.16
2018-09-25T09:02:16.713Z,103034.11
2018-09-25T09:03:25.470Z,103035.48
2018-09-25T09:04:34.234Z,103042.34
2018-09-25T09:05:42.753Z,103032.73
2018-09-25T09:06:51.421Z,103041.80
2018-09-25T09:07:59.930Z,103037.67
2018-09-25T09:09:08.686Z,103039.59
2018-09-25T09:10:17.197Z,103036.84
2018-09-25T09:11:25.807Z,103034.42
2018-09-25T09:12:34.584Z,103036.31
2018-09-25T09:13:43.167Z,103042.12
2018-09-25T09:14:51.708Z,103039.05
2018-09-25T09:16:00.518Z,103035.80
2018-09-25T09:17:09.354Z,103033.56
2018-09-25T09:18:17.908Z,103035.48
2018-09-25T09:19:26.602Z,103034.11
2018-09-25T09:20:35.487Z,103037.67
2018-09-25T09:21:44.258Z,103035.48
2018-09-25T09:22:52.846Z,103026.41
2018-09-25T09:24:01.664Z,103028.94
2018-09-25T09:25:10.415Z,103025.88
2018-09-25T09:26:19.014Z,103028.94
2018-09-25T09:27:27.788Z,103032.52
2018-09-25T09:28:36.316Z,103040.20
2018-09-25T09:29:45.114Z,103028.94
2018-09-25T09:30:53.643Z,103032.52
2018-09-25T09:32:04.183Z,103034.42
2018-09-25T09:33:12.914Z,103041.57
2018-09-25T09:34:21.747Z,103037.45
2018-09-25T09:35:30.483Z,103040.20
2018-09-25T09:36:39.229Z,103038.00
2018-09-25T09:37:47.975Z,103035.80
2018-09-25T09:38:56.738Z,103032.52
2018-09-25T09:40:05.598Z,103033.88
2018-09-25T09:41:14.378Z,103030.59
2018-09-25T09:42:22.969Z,103028.94
2018-09-25T09:43:31.736Z,103031.69
2018-09-25T09:44:40.595Z,103030.31
2018-09-25T09:45:49.340Z,103031.36
2018-09-25T09:46:57.931Z,103026.19
2018-09-25T09:48:06.713Z,103027.24
2018-09-25T09:49:15.515Z,103028.62
2018-09-25T09:50:24.127Z,103028.94
2018-09-25T09:51:32.768Z,103028.39
2018-09-25T09:52:41.547Z,103023.45
2018-09-25T09:53:50.314Z,103023.45
2018-09-25T09:54:58.886Z,103022.08
2018-09-25T09:56:07.759Z,103021.47
2018-09-25T09:57:16.397Z,103019.84
2018-09-25T09:58:25.200Z,103025.88
2018-09-25T09:59:34.020Z,103026.19
2018-09-25T10:00:42.838Z,103022.59
2018-09-25T10:01:51.634Z,103027.24
2018-09-25T10:03:00.468Z,103021.76
2018-09-25T10:04:09.072Z,103026.70
2018-09-25T10:05:17.895Z,103016.27
2018-09-25T10:06:26.640Z,103019.55
2018-09-25T10:07:35.561Z,103023.13
2018-09-25T10:08:44.711Z,103022.59
2018-09-25T10:09:53.430Z,103018.47
2018-09-25T10:11:02.201Z,103019.02
2018-09-25T10:12:10.990Z,103018.47
2018-09-25T10:13:19.804Z,103017.96
2018-09-25T10:14:28.589Z,103018.18
2018-09-25T10:15:37.425Z,103023.13
2018-09-25T10:16:47.671Z,103024.50
2018-09-25T10:17:56.468Z,103023.67
2018-09-25T10:19:05.360Z,103023.92
2018-09-25T10:20:14.345Z,103022.84
2018-09-25T10:21:23.113Z,103029.16
2018-09-25T10:22:31.728Z,103033.27
2018-09-25T10:23:40.527Z,103029.70
2018-09-25T10:24:49.246Z,103032.45
2018-09-25T10:25:58.012Z,103026.95
2018-09-25T10:27:06.624Z,103028.04
2018-09-25T10:28:15.192Z,103025.84
2018-09-25T10:29:23.966Z,103029.41
2018-09-25T10:30:32.833Z,103025.84
2018-09-25T10:31:41.568Z,103021.72
2018-09-25T10:32:50.261Z,103022.27
2018-09-25T10:33:58.903Z,103020.89
2018-09-25T10:35:07.641Z,103020.89
2018-09-25T10:36:16.461Z,103024.47
2018-09-25T10:37:25.136Z,103025.58
2018-09-25T10:38:33.817Z,103015.70
2018-09-25T10:39:42.550Z,103017.06
2018-09-25T10:40:51.250Z,103017.35
2018-09-25T10:41:59.929Z,103015.70
2018-09-25T10:43:08.792Z,103017.06
2018-09-25T10:44:17.439Z,103015.70
2018-09-25T10:45:26.131Z,103016.78
2018-09-25T10:46:34.891Z,103017.61
2018-09-25T10:47:43.733Z,103021.18
2018-09-25T10:48:52.566Z,103018.44
2018-09-25T10:50:01.113Z,103010.45
2018-09-25T10:51:09.722Z,103020.61
2018-09-25T10:52:18.814Z,103017.61
2018-09-25T10:53:27.599Z,103015.95
2018-09-25T10:54:36.366Z,103017.61
2018-09-25T10:55:45.151Z,103018.69
2018-09-25T10:56:53.882Z,103015.95
2018-09-25T10:58:02.625Z,103007.97
2018-09-25T10:59:11.577Z,103020.06
2018-09-25T11:00:20.325Z,103016.48
2018-09-25T11:01:29.148Z,103016.78
2018-09-25T11:02:37.831Z,103022.27
2018-09-25T11:03:46.608Z,103017.32
2018-09-25T11:04:55.216Z,103015.12
2018-09-25T11:06:04.065Z,103012.38
2018-09-25T11:07:13.004Z,103019.52
2018-09-25T11:08:21.659Z,103015.41
2018-09-25T11:09:30.376Z,103014.03
2018-09-25T11:10:38.987Z,103019.52
2018-09-25T11:11:48.417Z,103016.78
2018-09-25T11:12:57.125Z,103023.09
2018-09-25T11:14:05.913Z,103020.35
2018-09-25T11:15:14.226Z,103016.23
2018-09-25T11:16:22.791Z,103011.58
2018-09-25T11:17:31.683Z,103011.03
2018-09-25T11:18:40.544Z,103010.75
2018-09-25T11:19:49.299Z,103011.58
2018-09-25T11:20:58.063Z,103015.70
2018-09-25T11:22:06.758Z,103010.20
2018-09-25T11:23:15.536Z,103010.75
2018-09-25T11:24:24.320Z,103013.78
2018-09-25T11:25:33.175Z,103009.41
2018-09-25T11:26:42.085Z,103009.13
2018-09-25T11:27:50.752Z,103012.70
2018-09-25T11:28:59.679Z,103014.61
2018-09-25T11:30:08.501Z,103012.70
2018-09-25T11:31:17.242Z,103017.64
2018-09-25T11:32:25.887Z,103008.58
2018-09-25T11:33:34.704Z,103005.01
2018-09-25T11:34:43.501Z,103008.58
2018-09-25T11:35:52.052Z,103007.75
2018-09-25T11:37:00.820Z,103005.84
2018-09-25T11:38:09.539Z,103000.06
2018-09-25T11:39:18.296Z,103003.63
2018-09-25T11:40:26.908Z,102995.66
2018-09-25T11:41:35.569Z,103001.98
2018-09-25T11:42:44.317Z,103002.52
2018-09-25T11:43:53.155Z,103000.60
2018-09-25T11:45:01.798Z,102995.66
2018-09-25T11:46:10.495Z,102998.66
2018-09-25T11:47:19.244Z,103001.14
2018-09-25T11:48:27.760Z,102998.94
2018-09-25T11:49:36.530Z,102997.57
2018-09-25T11:50:45.361Z,103001.94
2018-09-25T11:51:54.211Z,102998.11
2018-09-25T11:53:02.999Z,102992.87
2018-09-25T11:54:11.681Z,103001.11
2018-09-25T11:55:20.293Z,102986.02
2018-09-25T11:56:29.186Z,102988.22
2018-09-25T11:57:37.799Z,102978.62
2018-09-25T11:58:46.565Z,102977.25
2018-09-25T11:59:55.372Z,102975.30
2018-09-25T12:01:04.191Z,102974.76
2018-09-25T12:02:13.012Z,102974.76
2018-09-25T12:03:21.779Z,102977.50
2018-09-25T12:04:30.464Z,102978.08
2018-09-25T12:05:39.325Z,102979.16
2018-09-25T12:06:48.008Z,102977.25
2018-09-25T12:07:56.676Z,102977.25
2018-09-25T12:09:05.530Z,102975.87
2018-09-25T12:10:14.353Z,102980.82
2018-09-25T12:11:23.129Z,102987.68
2018-09-25T12:12:31.856Z,102993.17
2018-09-25T12:13:40.632Z,102994.53
2018-09-25T12:14:49.474Z,102988.51
2018-09-25T12:15:58.385Z,102990.71
2018-09-25T12:17:07.053Z,102992.91
2018-09-25T12:18:15.777Z,102986.59
2018-09-25T12:19:24.454Z,102980.56
2018-09-25T12:20:33.200Z,102974.79
2018-09-25T12:21:42.012Z,102968.76
2018-09-25T12:22:50.723Z,102956.41
2018-09-25T12:23:59.540Z,102952.84
2018-09-25T12:25:08.360Z,102955.87
2018-09-25T12:26:16.963Z,102955.59
2018-09-25T12:27:25.646Z,102956.41
2018-09-25T12:28:34.289Z,102961.91
2018-09-25T12:29:43.134Z,102970.13
2018-09-25T12:30:51.844Z,102966.02
2018-09-25T12:32:00.498Z,102963.56
2018-09-25T12:33:09.371Z,102961.91
2018-09-25T12:34:18.362Z,102964.10
2018-09-25T12:35:27.121Z,102957.24
2018-09-25T12:36:35.788Z,102956.70
2018-09-25T12:37:44.445Z,102952.59
2018-09-25T12:38:53.000Z,102956.98
2018-09-25T12:40:01.886Z,102953.13
2018-09-25T12:41:10.561Z,102949.84
2018-09-25T12:42:19.266Z,102956.16
2018-09-25T12:43:28.022Z,102943.27
2018-09-25T12:44:36.540Z,102947.93
2018-09-25T12:45:45.346Z,102950.12
2018-09-25T12:46:53.914Z,102937.78
2018-09-25T12:48:02.658Z,102944.35
2018-09-25T12:49:12.359Z,102938.33
2018-09-25T12:50:21.232Z,102939.70
2018-09-25T12:51:29.803Z,102942.44
2018-09-25T12:52:38.647Z,102940.53
2018-09-25T12:53:47.362Z,102935.03
2018-09-25T12:54:56.193Z,102927.89
2018-09-25T12:56:05.048Z,102925.15
2018-09-25T12:57:13.820Z,102921.58
2018-09-25T12:58:22.573Z,102916.09
2018-09-25T12:59:31.213Z,102921.03
2018-09-25T13:00:39.994Z,102926.52
2018-09-25T13:01:48.853Z,102929.27
2018-09-25T13:02:57.575Z,102928.98
2018-09-25T13:04:06.327Z,102924.86